Terminal Aerodrome Forecast
Issued by NWS Wilmington, OH

Current Version | Previous Version | Graphics & Text | Print | Product List | Glossary On
Versions: 1 2 3 4 5 6 7 8 9 10 11 12 13 14 15 16 17 18 19
000
FTUS41 KILN 140538
TAFILN
TAF
KILN 140538Z 1406/1506 29022G30KT P6SM BKN022 OVC040
     FM140900 31016G24KT P6SM OVC022
     FM141200 33011KT P6SM BKN025
     FM141900 34007KT P6SM SCT030 OVC200
     FM150200 VRB03KT P6SM OVC150=

USA.gov is the U.S. government's official web portal to all federal, state and local government web resources and services.